<?xml version="1.0" encoding="UTF-8" standalone="no" ?>
<gpx xmlns="http://www.topografix.com/GPX/1/1" creator="CompeGPS" version="1.1" xmlns:xsi="http://www.w3.org/2001/XMLSchema-instance" xsi:schemaLocation="http://www.topografix.com/GPX/1/1 http://www.topografix.com/GPX/1/1/gpx.xsd http://www.garmin.com/xmlschemas/GpxExtensions/v3 http://www.garmin.com/xmlschemas/GpxExtensionsv3.xsd http://www.garmin.com/xmlschemas/TrackPointExtension/v1 http://www.garmin.com/xmlschemas/TrackPointExtensionv1.xsd" xmlns:gpxtpx="http://www.garmin.com/xmlschemas/TrackPointExtension/v1">
  <metadata>
    <link href="http://www.compegps.com">
      <text>CompeGPS TEAM, SL</text>
    </link>
    <time>2014-02-12T12:39:02Z</time>
    <bounds maxlat="43.473092" maxlon="1.560750" minlat="43.457890" minlon="1.530205"/>
  </metadata>
<wpt lat="43.471797" lon="1.549048">
<ele>165</ele>
<name>Donneville</name>
</wpt>
<wpt lat="43.469736" lon="1.550356">
<ele>155</ele>
<name>Fontbazi</name>
</wpt>
<wpt lat="43.460024" lon="1.558187">
<ele>170</ele>
<name>5 Carrieres</name>
</wpt>
<wpt lat="43.461605" lon="1.531324">
<ele>190</ele>
<name>La Ginestiere</name>
</wpt>
<wpt lat="43.468481" lon="1.535989">
<ele>195</ele>
<name>Patras</name>
</wpt>
<wpt lat="43.472613" lon="1.541055">
<ele>230</ele>
<name>L_Orfevre</name>
</wpt>
<trk>
    <name>Donneville</name>
    <trkseg>
      <trkpt lat="43.471797" lon="1.549048">
        <ele>166.8</ele>
        <time>2014-02-12T08:14:21Z</time>
        <name>Donneville</name>
      </trkpt>
      <trkpt lat="43.471730" lon="1.549031">
        <ele>167.5</ele>
        <time>2014-02-12T08:16:00Z</time>
      </trkpt>
      <trkpt lat="43.471617" lon="1.548969">
        <ele>168.6</ele>
        <time>2014-02-12T08:16:15Z</time>
      </trkpt>
      <trkpt lat="43.471517" lon="1.548900">
        <ele>169.0</ele>
        <time>2014-02-12T08:16:27Z</time>
      </trkpt>
      <trkpt lat="43.471442" lon="1.548823">
        <ele>169.9</ele>
        <time>2014-02-12T08:16:43Z</time>
      </trkpt>
      <trkpt lat="43.471370" lon="1.548751">
        <ele>171.0</ele>
        <time>2014-02-12T08:16:58Z</time>
      </trkpt>
      <trkpt lat="43.471297" lon="1.548632">
        <ele>171.5</ele>
        <time>2014-02-12T08:17:14Z</time>
      </trkpt>
      <trkpt lat="43.471200" lon="1.548562">
        <ele>171.6</ele>
        <time>2014-02-12T08:17:25Z</time>
      </trkpt>
      <trkpt lat="43.471131" lon="1.548471">
        <ele>171.1</ele>
        <time>2014-02-12T08:17:36Z</time>
      </trkpt>
      <trkpt lat="43.471037" lon="1.548423">
        <ele>170.8</ele>
        <time>2014-02-12T08:17:48Z</time>
      </trkpt>
      <trkpt lat="43.470919" lon="1.548471">
        <ele>169.4</ele>
        <time>2014-02-12T08:19:19Z</time>
      </trkpt>
      <trkpt lat="43.470831" lon="1.548551">
        <ele>167.1</ele>
        <time>2014-02-12T08:19:34Z</time>
      </trkpt>
      <trkpt lat="43.470777" lon="1.548681">
        <ele>164.5</ele>
        <time>2014-02-12T08:19:54Z</time>
      </trkpt>
      <trkpt lat="43.470716" lon="1.548819">
        <ele>161.9</ele>
        <time>2014-02-12T08:20:12Z</time>
      </trkpt>
      <trkpt lat="43.470683" lon="1.548970">
        <ele>160.3</ele>
        <time>2014-02-12T08:20:48Z</time>
      </trkpt>
      <trkpt lat="43.470602" lon="1.549023">
        <ele>158.2</ele>
        <time>2014-02-12T08:21:05Z</time>
      </trkpt>
      <trkpt lat="43.470525" lon="1.549083">
        <ele>157.1</ele>
        <time>2014-02-12T08:21:19Z</time>
      </trkpt>
      <trkpt lat="43.470523" lon="1.549070">
        <ele>156.7</ele>
        <time>2014-02-12T08:22:35Z</time>
      </trkpt>
      <trkpt lat="43.470525" lon="1.549219">
        <ele>156.5</ele>
        <time>2014-02-12T08:22:49Z</time>
      </trkpt>
      <trkpt lat="43.470486" lon="1.549358">
        <ele>155.8</ele>
        <time>2014-02-12T08:23:03Z</time>
      </trkpt>
      <trkpt lat="43.470498" lon="1.549508">
        <ele>155.2</ele>
        <time>2014-02-12T08:23:26Z</time>
      </trkpt>
      <trkpt lat="43.470476" lon="1.549643">
        <ele>154.6</ele>
        <time>2014-02-12T08:23:52Z</time>
      </trkpt>
      <trkpt lat="43.470401" lon="1.549775">
        <ele>154.3</ele>
        <time>2014-02-12T08:24:10Z</time>
      </trkpt>
      <trkpt lat="43.470326" lon="1.549903">
        <ele>154.2</ele>
        <time>2014-02-12T08:24:25Z</time>
      </trkpt>
      <trkpt lat="43.470236" lon="1.550012">
        <ele>153.6</ele>
        <time>2014-02-12T08:24:39Z</time>
      </trkpt>
      <trkpt lat="43.470143" lon="1.550117">
        <ele>153.9</ele>
        <time>2014-02-12T08:24:57Z</time>
      </trkpt>
      <trkpt lat="43.470051" lon="1.550191">
        <ele>153.7</ele>
        <time>2014-02-12T08:25:09Z</time>
      </trkpt>
      <trkpt lat="43.469963" lon="1.550277">
        <ele>153.7</ele>
        <time>2014-02-12T08:25:20Z</time>
      </trkpt>
      <trkpt lat="43.469854" lon="1.550320">
        <ele>153.7</ele>
        <time>2014-02-12T08:25:31Z</time>
      </trkpt>
      <trkpt lat="43.469736" lon="1.550356">
        <ele>153.7</ele>
        <time>2014-02-12T08:25:42Z</time>
        <name>Fontbazi</name>
      </trkpt>
      <trkpt lat="43.469705" lon="1.550487">
        <ele>154.2</ele>
        <time>2014-02-12T08:25:55Z</time>
      </trkpt>
      <trkpt lat="43.469737" lon="1.550575">
        <ele>154.3</ele>
        <time>2014-02-12T08:26:05Z</time>
      </trkpt>
      <trkpt lat="43.469776" lon="1.550699">
        <ele>154.3</ele>
        <time>2014-02-12T08:26:15Z</time>
      </trkpt>
      <trkpt lat="43.469803" lon="1.550830">
        <ele>154.3</ele>
        <time>2014-02-12T08:26:25Z</time>
      </trkpt>
      <trkpt lat="43.469798" lon="1.550969">
        <ele>154.5</ele>
        <time>2014-02-12T08:26:35Z</time>
      </trkpt>
      <trkpt lat="43.469804" lon="1.551107">
        <ele>154.8</ele>
        <time>2014-02-12T08:26:47Z</time>
      </trkpt>
      <trkpt lat="43.469815" lon="1.551249">
        <ele>155.6</ele>
        <time>2014-02-12T08:26:59Z</time>
      </trkpt>
      <trkpt lat="43.469809" lon="1.551433">
        <ele>156.8</ele>
        <time>2014-02-12T08:27:11Z</time>
      </trkpt>
      <trkpt lat="43.469833" lon="1.551587">
        <ele>158.4</ele>
        <time>2014-02-12T08:27:23Z</time>
      </trkpt>
      <trkpt lat="43.469807" lon="1.551728">
        <ele>159.5</ele>
        <time>2014-02-12T08:27:33Z</time>
      </trkpt>
      <trkpt lat="43.469725" lon="1.551830">
        <ele>160.8</ele>
        <time>2014-02-12T08:27:42Z</time>
      </trkpt>
      <trkpt lat="43.469644" lon="1.551912">
        <ele>161.9</ele>
        <time>2014-02-12T08:27:50Z</time>
      </trkpt>
      <trkpt lat="43.469562" lon="1.551969">
        <ele>162.9</ele>
        <time>2014-02-12T08:27:58Z</time>
      </trkpt>
      <trkpt lat="43.469475" lon="1.552031">
        <ele>163.5</ele>
        <time>2014-02-12T08:28:06Z</time>
      </trkpt>
      <trkpt lat="43.469379" lon="1.552110">
        <ele>164.0</ele>
        <time>2014-02-12T08:28:14Z</time>
      </trkpt>
      <trkpt lat="43.469300" lon="1.552169">
        <ele>164.9</ele>
        <time>2014-02-12T08:28:22Z</time>
      </trkpt>
      <trkpt lat="43.469207" lon="1.552212">
        <ele>165.4</ele>
        <time>2014-02-12T08:28:30Z</time>
      </trkpt>
      <trkpt lat="43.469102" lon="1.552258">
        <ele>165.9</ele>
        <time>2014-02-12T08:28:39Z</time>
      </trkpt>
      <trkpt lat="43.469019" lon="1.552319">
        <ele>166.4</ele>
        <time>2014-02-12T08:28:47Z</time>
      </trkpt>
      <trkpt lat="43.468925" lon="1.552398">
        <ele>166.9</ele>
        <time>2014-02-12T08:28:56Z</time>
      </trkpt>
      <trkpt lat="43.468838" lon="1.552483">
        <ele>167.6</ele>
        <time>2014-02-12T08:29:05Z</time>
      </trkpt>
      <trkpt lat="43.468740" lon="1.552544">
        <ele>168.4</ele>
        <time>2014-02-12T08:29:16Z</time>
      </trkpt>
      <trkpt lat="43.468646" lon="1.552584">
        <ele>168.9</ele>
        <time>2014-02-12T08:29:24Z</time>
      </trkpt>
      <trkpt lat="43.468565" lon="1.552658">
        <ele>169.4</ele>
        <time>2014-02-12T08:29:32Z</time>
      </trkpt>
      <trkpt lat="43.468482" lon="1.552738">
        <ele>169.9</ele>
        <time>2014-02-12T08:29:41Z</time>
      </trkpt>
      <trkpt lat="43.468405" lon="1.552892">
        <ele>170.3</ele>
        <time>2014-02-12T08:29:49Z</time>
      </trkpt>
      <trkpt lat="43.468329" lon="1.552984">
        <ele>171.0</ele>
        <time>2014-02-12T08:29:57Z</time>
      </trkpt>
      <trkpt lat="43.468240" lon="1.553061">
        <ele>171.4</ele>
        <time>2014-02-12T08:30:06Z</time>
      </trkpt>
      <trkpt lat="43.468156" lon="1.553127">
        <ele>172.1</ele>
        <time>2014-02-12T08:30:16Z</time>
      </trkpt>
      <trkpt lat="43.468079" lon="1.553213">
        <ele>172.8</ele>
        <time>2014-02-12T08:30:25Z</time>
      </trkpt>
      <trkpt lat="43.467995" lon="1.553296">
        <ele>173.6</ele>
        <time>2014-02-12T08:30:35Z</time>
      </trkpt>
      <trkpt lat="43.467910" lon="1.553372">
        <ele>174.3</ele>
        <time>2014-02-12T08:30:44Z</time>
      </trkpt>
      <trkpt lat="43.467837" lon="1.553457">
        <ele>174.9</ele>
        <time>2014-02-12T08:30:53Z</time>
      </trkpt>
      <trkpt lat="43.467750" lon="1.553531">
        <ele>175.6</ele>
        <time>2014-02-12T08:31:04Z</time>
      </trkpt>
      <trkpt lat="43.467669" lon="1.553622">
        <ele>176.5</ele>
        <time>2014-02-12T08:31:15Z</time>
      </trkpt>
      <trkpt lat="43.467606" lon="1.553679">
        <ele>177.6</ele>
        <time>2014-02-12T08:31:33Z</time>
      </trkpt>
      <trkpt lat="43.467515" lon="1.553775">
        <ele>177.5</ele>
        <time>2014-02-12T08:31:46Z</time>
      </trkpt>
      <trkpt lat="43.467432" lon="1.553856">
        <ele>177.9</ele>
        <time>2014-02-12T08:31:57Z</time>
      </trkpt>
      <trkpt lat="43.467346" lon="1.553941">
        <ele>178.3</ele>
        <time>2014-02-12T08:32:07Z</time>
      </trkpt>
      <trkpt lat="43.467273" lon="1.554015">
        <ele>178.8</ele>
        <time>2014-02-12T08:32:16Z</time>
      </trkpt>
      <trkpt lat="43.467203" lon="1.554105">
        <ele>179.2</ele>
        <time>2014-02-12T08:32:26Z</time>
      </trkpt>
      <trkpt lat="43.467131" lon="1.554181">
        <ele>179.4</ele>
        <time>2014-02-12T08:32:35Z</time>
      </trkpt>
      <trkpt lat="43.467056" lon="1.554264">
        <ele>179.7</ele>
        <time>2014-02-12T08:32:45Z</time>
      </trkpt>
      <trkpt lat="43.466985" lon="1.554345">
        <ele>179.7</ele>
        <time>2014-02-12T08:32:54Z</time>
      </trkpt>
      <trkpt lat="43.466904" lon="1.554440">
        <ele>180.0</ele>
        <time>2014-02-12T08:33:04Z</time>
      </trkpt>
      <trkpt lat="43.466842" lon="1.554515">
        <ele>180.3</ele>
        <time>2014-02-12T08:33:15Z</time>
      </trkpt>
      <trkpt lat="43.466777" lon="1.554616">
        <ele>180.4</ele>
        <time>2014-02-12T08:33:24Z</time>
      </trkpt>
      <trkpt lat="43.466698" lon="1.554700">
        <ele>180.6</ele>
        <time>2014-02-12T08:33:33Z</time>
      </trkpt>
      <trkpt lat="43.466629" lon="1.554784">
        <ele>180.8</ele>
        <time>2014-02-12T08:33:43Z</time>
      </trkpt>
      <trkpt lat="43.466552" lon="1.554865">
        <ele>180.7</ele>
        <time>2014-02-12T08:33:52Z</time>
      </trkpt>
      <trkpt lat="43.466480" lon="1.554956">
        <ele>180.6</ele>
        <time>2014-02-12T08:34:01Z</time>
      </trkpt>
      <trkpt lat="43.466409" lon="1.555031">
        <ele>180.4</ele>
        <time>2014-02-12T08:34:10Z</time>
      </trkpt>
      <trkpt lat="43.466341" lon="1.555126">
        <ele>180.6</ele>
        <time>2014-02-12T08:34:19Z</time>
      </trkpt>
      <trkpt lat="43.466267" lon="1.555210">
        <ele>181.1</ele>
        <time>2014-02-12T08:34:29Z</time>
      </trkpt>
      <trkpt lat="43.466196" lon="1.555291">
        <ele>181.1</ele>
        <time>2014-02-12T08:34:38Z</time>
      </trkpt>
      <trkpt lat="43.466128" lon="1.555372">
        <ele>181.2</ele>
        <time>2014-02-12T08:34:47Z</time>
      </trkpt>
      <trkpt lat="43.466052" lon="1.555455">
        <ele>181.2</ele>
        <time>2014-02-12T08:34:57Z</time>
      </trkpt>
      <trkpt lat="43.465977" lon="1.555557">
        <ele>181.4</ele>
        <time>2014-02-12T08:35:07Z</time>
      </trkpt>
      <trkpt lat="43.465902" lon="1.555655">
        <ele>181.4</ele>
        <time>2014-02-12T08:35:17Z</time>
      </trkpt>
      <trkpt lat="43.465849" lon="1.555709">
        <ele>181.9</ele>
        <time>2014-02-12T08:36:59Z</time>
      </trkpt>
      <trkpt lat="43.465770" lon="1.555796">
        <ele>182.1</ele>
        <time>2014-02-12T08:37:08Z</time>
      </trkpt>
      <trkpt lat="43.465691" lon="1.555879">
        <ele>182.1</ele>
        <time>2014-02-12T08:37:17Z</time>
      </trkpt>
      <trkpt lat="43.465614" lon="1.555961">
        <ele>182.2</ele>
        <time>2014-02-12T08:37:25Z</time>
      </trkpt>
      <trkpt lat="43.465539" lon="1.556034">
        <ele>182.3</ele>
        <time>2014-02-12T08:37:33Z</time>
      </trkpt>
      <trkpt lat="43.465456" lon="1.556122">
        <ele>182.5</ele>
        <time>2014-02-12T08:37:42Z</time>
      </trkpt>
      <trkpt lat="43.465371" lon="1.556201">
        <ele>182.8</ele>
        <time>2014-02-12T08:37:51Z</time>
      </trkpt>
      <trkpt lat="43.465293" lon="1.556268">
        <ele>183.4</ele>
        <time>2014-02-12T08:38:01Z</time>
      </trkpt>
      <trkpt lat="43.465205" lon="1.556337">
        <ele>183.7</ele>
        <time>2014-02-12T08:38:11Z</time>
      </trkpt>
      <trkpt lat="43.465114" lon="1.556425">
        <ele>183.3</ele>
        <time>2014-02-12T08:38:22Z</time>
      </trkpt>
      <trkpt lat="43.465028" lon="1.556508">
        <ele>183.5</ele>
        <time>2014-02-12T08:38:31Z</time>
      </trkpt>
      <trkpt lat="43.464948" lon="1.556582">
        <ele>183.4</ele>
        <time>2014-02-12T08:38:41Z</time>
      </trkpt>
      <trkpt lat="43.464863" lon="1.556648">
        <ele>183.4</ele>
        <time>2014-02-12T08:38:52Z</time>
      </trkpt>
      <trkpt lat="43.464774" lon="1.556710">
        <ele>183.6</ele>
        <time>2014-02-12T08:39:03Z</time>
      </trkpt>
      <trkpt lat="43.464694" lon="1.556795">
        <ele>183.5</ele>
        <time>2014-02-12T08:39:12Z</time>
      </trkpt>
      <trkpt lat="43.464650" lon="1.556821">
        <ele>183.6</ele>
        <time>2014-02-12T08:40:29Z</time>
      </trkpt>
      <trkpt lat="43.464565" lon="1.556905">
        <ele>183.5</ele>
        <time>2014-02-12T08:40:38Z</time>
      </trkpt>
      <trkpt lat="43.464473" lon="1.556996">
        <ele>183.7</ele>
        <time>2014-02-12T08:40:47Z</time>
      </trkpt>
      <trkpt lat="43.464392" lon="1.557093">
        <ele>183.7</ele>
        <time>2014-02-12T08:40:56Z</time>
      </trkpt>
      <trkpt lat="43.464324" lon="1.557186">
        <ele>183.8</ele>
        <time>2014-02-12T08:41:04Z</time>
      </trkpt>
      <trkpt lat="43.464255" lon="1.557263">
        <ele>183.7</ele>
        <time>2014-02-12T08:41:12Z</time>
      </trkpt>
      <trkpt lat="43.464185" lon="1.557348">
        <ele>183.9</ele>
        <time>2014-02-12T08:41:20Z</time>
      </trkpt>
      <trkpt lat="43.464116" lon="1.557437">
        <ele>184.0</ele>
        <time>2014-02-12T08:41:28Z</time>
      </trkpt>
      <trkpt lat="43.464049" lon="1.557534">
        <ele>184.2</ele>
        <time>2014-02-12T08:41:36Z</time>
      </trkpt>
      <trkpt lat="43.463992" lon="1.557630">
        <ele>184.5</ele>
        <time>2014-02-12T08:41:44Z</time>
      </trkpt>
      <trkpt lat="43.463930" lon="1.557737">
        <ele>184.7</ele>
        <time>2014-02-12T08:41:52Z</time>
      </trkpt>
      <trkpt lat="43.463872" lon="1.557845">
        <ele>184.9</ele>
        <time>2014-02-12T08:42:00Z</time>
      </trkpt>
      <trkpt lat="43.463814" lon="1.557943">
        <ele>185.2</ele>
        <time>2014-02-12T08:42:08Z</time>
      </trkpt>
      <trkpt lat="43.463760" lon="1.558048">
        <ele>185.5</ele>
        <time>2014-02-12T08:42:16Z</time>
      </trkpt>
      <trkpt lat="43.463714" lon="1.558150">
        <ele>186.0</ele>
        <time>2014-02-12T08:42:26Z</time>
      </trkpt>
      <trkpt lat="43.463654" lon="1.558265">
        <ele>186.3</ele>
        <time>2014-02-12T08:42:37Z</time>
      </trkpt>
      <trkpt lat="43.463596" lon="1.558393">
        <ele>186.7</ele>
        <time>2014-02-12T08:42:47Z</time>
      </trkpt>
      <trkpt lat="43.463535" lon="1.558477">
        <ele>187.0</ele>
        <time>2014-02-12T08:43:02Z</time>
      </trkpt>
      <trkpt lat="43.463512" lon="1.558591">
        <ele>187.8</ele>
        <time>2014-02-12T08:44:17Z</time>
      </trkpt>
      <trkpt lat="43.463474" lon="1.558712">
        <ele>188.0</ele>
        <time>2014-02-12T08:44:27Z</time>
      </trkpt>
      <trkpt lat="43.463426" lon="1.558837">
        <ele>188.2</ele>
        <time>2014-02-12T08:44:40Z</time>
      </trkpt>
      <trkpt lat="43.463355" lon="1.558980">
        <ele>188.7</ele>
        <time>2014-02-12T08:44:54Z</time>
      </trkpt>
      <trkpt lat="43.463285" lon="1.559129">
        <ele>189.1</ele>
        <time>2014-02-12T08:45:06Z</time>
      </trkpt>
      <trkpt lat="43.463212" lon="1.559269">
        <ele>189.4</ele>
        <time>2014-02-12T08:45:17Z</time>
      </trkpt>
      <trkpt lat="43.463147" lon="1.559375">
        <ele>189.9</ele>
        <time>2014-02-12T08:45:26Z</time>
      </trkpt>
      <trkpt lat="43.463090" lon="1.559497">
        <ele>190.1</ele>
        <time>2014-02-12T08:45:36Z</time>
      </trkpt>
      <trkpt lat="43.463021" lon="1.559617">
        <ele>190.5</ele>
        <time>2014-02-12T08:45:46Z</time>
      </trkpt>
      <trkpt lat="43.462951" lon="1.559745">
        <ele>190.8</ele>
        <time>2014-02-12T08:45:56Z</time>
      </trkpt>
      <trkpt lat="43.462872" lon="1.559829">
        <ele>191.7</ele>
        <time>2014-02-12T08:46:07Z</time>
      </trkpt>
      <trkpt lat="43.462797" lon="1.559924">
        <ele>192.1</ele>
        <time>2014-02-12T08:46:16Z</time>
      </trkpt>
      <trkpt lat="43.462729" lon="1.560024">
        <ele>192.4</ele>
        <time>2014-02-12T08:46:25Z</time>
      </trkpt>
      <trkpt lat="43.462654" lon="1.560111">
        <ele>193.0</ele>
        <time>2014-02-12T08:46:33Z</time>
      </trkpt>
      <trkpt lat="43.462584" lon="1.560197">
        <ele>193.7</ele>
        <time>2014-02-12T08:46:42Z</time>
      </trkpt>
      <trkpt lat="43.462512" lon="1.560285">
        <ele>194.2</ele>
        <time>2014-02-12T08:46:51Z</time>
      </trkpt>
      <trkpt lat="43.462444" lon="1.560398">
        <ele>194.7</ele>
        <time>2014-02-12T08:46:59Z</time>
      </trkpt>
      <trkpt lat="43.462376" lon="1.560507">
        <ele>195.1</ele>
        <time>2014-02-12T08:47:07Z</time>
      </trkpt>
      <trkpt lat="43.462308" lon="1.560621">
        <ele>195.4</ele>
        <time>2014-02-12T08:47:15Z</time>
      </trkpt>
      <trkpt lat="43.462239" lon="1.560710">
        <ele>196.0</ele>
        <time>2014-02-12T08:47:23Z</time>
      </trkpt>
      <trkpt lat="43.462151" lon="1.560750">
        <ele>196.2</ele>
        <time>2014-02-12T08:47:33Z</time>
      </trkpt>
      <trkpt lat="43.462098" lon="1.560671">
        <ele>196.6</ele>
        <time>2014-02-12T08:47:52Z</time>
      </trkpt>
      <trkpt lat="43.462019" lon="1.560586">
        <ele>197.2</ele>
        <time>2014-02-12T08:48:03Z</time>
      </trkpt>
      <trkpt lat="43.461955" lon="1.560483">
        <ele>197.5</ele>
        <time>2014-02-12T08:48:14Z</time>
      </trkpt>
      <trkpt lat="43.461876" lon="1.560376">
        <ele>197.3</ele>
        <time>2014-02-12T08:48:25Z</time>
      </trkpt>
      <trkpt lat="43.461801" lon="1.560284">
        <ele>197.2</ele>
        <time>2014-02-12T08:48:34Z</time>
      </trkpt>
      <trkpt lat="43.461705" lon="1.560210">
        <ele>197.1</ele>
        <time>2014-02-12T08:48:44Z</time>
      </trkpt>
      <trkpt lat="43.461623" lon="1.560130">
        <ele>196.6</ele>
        <time>2014-02-12T08:48:53Z</time>
      </trkpt>
      <trkpt lat="43.461537" lon="1.560043">
        <ele>196.5</ele>
        <time>2014-02-12T08:49:03Z</time>
      </trkpt>
      <trkpt lat="43.461460" lon="1.559952">
        <ele>196.3</ele>
        <time>2014-02-12T08:49:12Z</time>
      </trkpt>
      <trkpt lat="43.461374" lon="1.559852">
        <ele>195.5</ele>
        <time>2014-02-12T08:49:24Z</time>
      </trkpt>
      <trkpt lat="43.461291" lon="1.559759">
        <ele>194.8</ele>
        <time>2014-02-12T08:49:33Z</time>
      </trkpt>
      <trkpt lat="43.461205" lon="1.559649">
        <ele>194.0</ele>
        <time>2014-02-12T08:49:44Z</time>
      </trkpt>
      <trkpt lat="43.461134" lon="1.559549">
        <ele>192.8</ele>
        <time>2014-02-12T08:49:55Z</time>
      </trkpt>
      <trkpt lat="43.461055" lon="1.559446">
        <ele>191.5</ele>
        <time>2014-02-12T08:50:06Z</time>
      </trkpt>
      <trkpt lat="43.460984" lon="1.559338">
        <ele>190.0</ele>
        <time>2014-02-12T08:50:16Z</time>
      </trkpt>
      <trkpt lat="43.460918" lon="1.559257">
        <ele>188.7</ele>
        <time>2014-02-12T08:50:26Z</time>
      </trkpt>
      <trkpt lat="43.460860" lon="1.559173">
        <ele>187.4</ele>
        <time>2014-02-12T08:50:36Z</time>
      </trkpt>
      <trkpt lat="43.460776" lon="1.559097">
        <ele>186.2</ele>
        <time>2014-02-12T08:50:47Z</time>
      </trkpt>
      <trkpt lat="43.460703" lon="1.559007">
        <ele>184.4</ele>
        <time>2014-02-12T08:50:57Z</time>
      </trkpt>
      <trkpt lat="43.460628" lon="1.558926">
        <ele>182.3</ele>
        <time>2014-02-12T08:51:08Z</time>
      </trkpt>
      <trkpt lat="43.460560" lon="1.558835">
        <ele>180.2</ele>
        <time>2014-02-12T08:51:18Z</time>
      </trkpt>
      <trkpt lat="43.460481" lon="1.558735">
        <ele>178.2</ele>
        <time>2014-02-12T08:51:29Z</time>
      </trkpt>
      <trkpt lat="43.460409" lon="1.558649">
        <ele>175.6</ele>
        <time>2014-02-12T08:51:44Z</time>
      </trkpt>
      <trkpt lat="43.460331" lon="1.558563">
        <ele>174.2</ele>
        <time>2014-02-12T08:51:54Z</time>
      </trkpt>
      <trkpt lat="43.460253" lon="1.558475">
        <ele>172.8</ele>
        <time>2014-02-12T08:52:03Z</time>
      </trkpt>
      <trkpt lat="43.460181" lon="1.558391">
        <ele>171.4</ele>
        <time>2014-02-12T08:52:12Z</time>
      </trkpt>
      <trkpt lat="43.460094" lon="1.558305">
        <ele>170.4</ele>
        <time>2014-02-12T08:52:21Z</time>
      </trkpt>
      <trkpt lat="43.460024" lon="1.558187">
        <ele>169.2</ele>
        <time>2014-02-12T08:52:31Z</time>
        <name>5 Carrieres</name>
      </trkpt>
      <trkpt lat="43.459983" lon="1.558085">
        <ele>167.8</ele>
        <time>2014-02-12T08:52:48Z</time>
      </trkpt>
      <trkpt lat="43.459982" lon="1.558049">
        <ele>168.2</ele>
        <time>2014-02-12T08:53:47Z</time>
      </trkpt>
      <trkpt lat="43.459971" lon="1.558005">
        <ele>168.3</ele>
        <time>2014-02-12T08:55:47Z</time>
      </trkpt>
      <trkpt lat="43.459988" lon="1.557862">
        <ele>168.4</ele>
        <time>2014-02-12T08:56:00Z</time>
      </trkpt>
      <trkpt lat="43.459970" lon="1.557717">
        <ele>168.2</ele>
        <time>2014-02-12T08:56:11Z</time>
      </trkpt>
      <trkpt lat="43.459942" lon="1.557563">
        <ele>168.3</ele>
        <time>2014-02-12T08:56:21Z</time>
      </trkpt>
      <trkpt lat="43.459927" lon="1.557426">
        <ele>168.5</ele>
        <time>2014-02-12T08:56:30Z</time>
      </trkpt>
      <trkpt lat="43.459884" lon="1.557283">
        <ele>168.7</ele>
        <time>2014-02-12T08:56:39Z</time>
      </trkpt>
      <trkpt lat="43.459865" lon="1.557149">
        <ele>168.9</ele>
        <time>2014-02-12T08:56:48Z</time>
      </trkpt>
      <trkpt lat="43.459848" lon="1.557008">
        <ele>169.1</ele>
        <time>2014-02-12T08:56:57Z</time>
      </trkpt>
      <trkpt lat="43.459819" lon="1.556876">
        <ele>169.4</ele>
        <time>2014-02-12T08:57:06Z</time>
      </trkpt>
      <trkpt lat="43.459792" lon="1.556732">
        <ele>169.9</ele>
        <time>2014-02-12T08:57:15Z</time>
      </trkpt>
      <trkpt lat="43.459764" lon="1.556605">
        <ele>170.1</ele>
        <time>2014-02-12T08:57:23Z</time>
      </trkpt>
      <trkpt lat="43.459735" lon="1.556483">
        <ele>170.2</ele>
        <time>2014-02-12T08:57:31Z</time>
      </trkpt>
      <trkpt lat="43.459702" lon="1.556371">
        <ele>170.6</ele>
        <time>2014-02-12T08:57:39Z</time>
      </trkpt>
      <trkpt lat="43.459669" lon="1.556254">
        <ele>170.8</ele>
        <time>2014-02-12T08:57:47Z</time>
      </trkpt>
      <trkpt lat="43.459623" lon="1.556132">
        <ele>170.8</ele>
        <time>2014-02-12T08:57:56Z</time>
      </trkpt>
      <trkpt lat="43.459575" lon="1.556014">
        <ele>171.1</ele>
        <time>2014-02-12T08:58:05Z</time>
      </trkpt>
      <trkpt lat="43.459526" lon="1.555895">
        <ele>171.6</ele>
        <time>2014-02-12T08:58:14Z</time>
      </trkpt>
      <trkpt lat="43.459482" lon="1.555779">
        <ele>172.0</ele>
        <time>2014-02-12T08:58:23Z</time>
      </trkpt>
      <trkpt lat="43.459441" lon="1.555667">
        <ele>172.4</ele>
        <time>2014-02-12T08:58:32Z</time>
      </trkpt>
      <trkpt lat="43.459403" lon="1.555549">
        <ele>172.3</ele>
        <time>2014-02-12T08:58:41Z</time>
      </trkpt>
      <trkpt lat="43.459360" lon="1.555429">
        <ele>172.5</ele>
        <time>2014-02-12T08:58:50Z</time>
      </trkpt>
      <trkpt lat="43.459322" lon="1.555315">
        <ele>172.2</ele>
        <time>2014-02-12T08:58:59Z</time>
      </trkpt>
      <trkpt lat="43.459284" lon="1.555204">
        <ele>171.9</ele>
        <time>2014-02-12T08:59:08Z</time>
      </trkpt>
      <trkpt lat="43.459254" lon="1.555090">
        <ele>171.8</ele>
        <time>2014-02-12T08:59:17Z</time>
      </trkpt>
      <trkpt lat="43.459215" lon="1.554970">
        <ele>171.6</ele>
        <time>2014-02-12T08:59:27Z</time>
      </trkpt>
      <trkpt lat="43.459180" lon="1.554858">
        <ele>171.1</ele>
        <time>2014-02-12T08:59:37Z</time>
      </trkpt>
      <trkpt lat="43.459149" lon="1.554741">
        <ele>170.7</ele>
        <time>2014-02-12T08:59:46Z</time>
      </trkpt>
      <trkpt lat="43.459119" lon="1.554612">
        <ele>170.4</ele>
        <time>2014-02-12T08:59:55Z</time>
      </trkpt>
      <trkpt lat="43.459109" lon="1.554475">
        <ele>170.2</ele>
        <time>2014-02-12T09:00:04Z</time>
      </trkpt>
      <trkpt lat="43.459103" lon="1.554328">
        <ele>170.2</ele>
        <time>2014-02-12T09:00:14Z</time>
      </trkpt>
      <trkpt lat="43.459084" lon="1.554189">
        <ele>170.2</ele>
        <time>2014-02-12T09:01:07Z</time>
      </trkpt>
      <trkpt lat="43.459129" lon="1.554057">
        <ele>170.2</ele>
        <time>2014-02-12T09:01:18Z</time>
      </trkpt>
      <trkpt lat="43.459178" lon="1.553944">
        <ele>170.5</ele>
        <time>2014-02-12T09:01:31Z</time>
      </trkpt>
      <trkpt lat="43.459229" lon="1.553825">
        <ele>170.8</ele>
        <time>2014-02-12T09:01:42Z</time>
      </trkpt>
      <trkpt lat="43.459271" lon="1.553701">
        <ele>171.2</ele>
        <time>2014-02-12T09:01:51Z</time>
      </trkpt>
      <trkpt lat="43.459325" lon="1.553594">
        <ele>171.5</ele>
        <time>2014-02-12T09:02:00Z</time>
      </trkpt>
      <trkpt lat="43.459360" lon="1.553470">
        <ele>171.9</ele>
        <time>2014-02-12T09:02:10Z</time>
      </trkpt>
      <trkpt lat="43.459393" lon="1.553354">
        <ele>172.3</ele>
        <time>2014-02-12T09:02:21Z</time>
      </trkpt>
      <trkpt lat="43.459385" lon="1.553178">
        <ele>172.7</ele>
        <time>2014-02-12T09:02:34Z</time>
      </trkpt>
      <trkpt lat="43.459348" lon="1.553022">
        <ele>173.0</ele>
        <time>2014-02-12T09:02:44Z</time>
      </trkpt>
      <trkpt lat="43.459309" lon="1.552918">
        <ele>173.4</ele>
        <time>2014-02-12T09:02:53Z</time>
      </trkpt>
      <trkpt lat="43.459262" lon="1.552807">
        <ele>174.1</ele>
        <time>2014-02-12T09:03:04Z</time>
      </trkpt>
      <trkpt lat="43.459197" lon="1.552675">
        <ele>175.0</ele>
        <time>2014-02-12T09:03:17Z</time>
      </trkpt>
      <trkpt lat="43.459112" lon="1.552554">
        <ele>175.6</ele>
        <time>2014-02-12T09:03:27Z</time>
      </trkpt>
      <trkpt lat="43.459034" lon="1.552448">
        <ele>176.1</ele>
        <time>2014-02-12T09:03:38Z</time>
      </trkpt>
      <trkpt lat="43.458943" lon="1.552346">
        <ele>177.3</ele>
        <time>2014-02-12T09:03:50Z</time>
      </trkpt>
      <trkpt lat="43.458852" lon="1.552221">
        <ele>177.8</ele>
        <time>2014-02-12T09:04:02Z</time>
      </trkpt>
      <trkpt lat="43.458771" lon="1.552116">
        <ele>177.8</ele>
        <time>2014-02-12T09:04:14Z</time>
      </trkpt>
      <trkpt lat="43.458680" lon="1.552020">
        <ele>177.9</ele>
        <time>2014-02-12T09:04:26Z</time>
      </trkpt>
      <trkpt lat="43.458595" lon="1.551891">
        <ele>177.7</ele>
        <time>2014-02-12T09:04:38Z</time>
      </trkpt>
      <trkpt lat="43.458519" lon="1.551771">
        <ele>178.1</ele>
        <time>2014-02-12T09:04:50Z</time>
      </trkpt>
      <trkpt lat="43.458438" lon="1.551643">
        <ele>178.5</ele>
        <time>2014-02-12T09:05:05Z</time>
      </trkpt>
      <trkpt lat="43.458353" lon="1.551518">
        <ele>178.8</ele>
        <time>2014-02-12T09:05:20Z</time>
      </trkpt>
      <trkpt lat="43.458313" lon="1.551528">
        <ele>178.8</ele>
        <time>2014-02-12T09:06:55Z</time>
      </trkpt>
      <trkpt lat="43.458310" lon="1.551444">
        <ele>179.3</ele>
        <time>2014-02-12T09:07:27Z</time>
      </trkpt>
      <trkpt lat="43.458236" lon="1.551283">
        <ele>179.5</ele>
        <time>2014-02-12T09:07:43Z</time>
      </trkpt>
      <trkpt lat="43.458186" lon="1.551102">
        <ele>180.1</ele>
        <time>2014-02-12T09:07:59Z</time>
      </trkpt>
      <trkpt lat="43.458106" lon="1.550926">
        <ele>181.2</ele>
        <time>2014-02-12T09:08:15Z</time>
      </trkpt>
      <trkpt lat="43.458043" lon="1.550717">
        <ele>182.2</ele>
        <time>2014-02-12T09:08:29Z</time>
      </trkpt>
      <trkpt lat="43.457986" lon="1.550571">
        <ele>183.0</ele>
        <time>2014-02-12T09:08:44Z</time>
      </trkpt>
      <trkpt lat="43.457945" lon="1.550427">
        <ele>183.7</ele>
        <time>2014-02-12T09:08:58Z</time>
      </trkpt>
      <trkpt lat="43.457921" lon="1.550237">
        <ele>184.4</ele>
        <time>2014-02-12T09:09:14Z</time>
      </trkpt>
      <trkpt lat="43.457907" lon="1.550085">
        <ele>185.2</ele>
        <time>2014-02-12T09:09:27Z</time>
      </trkpt>
      <trkpt lat="43.457903" lon="1.549915">
        <ele>185.5</ele>
        <time>2014-02-12T09:09:40Z</time>
      </trkpt>
      <trkpt lat="43.457890" lon="1.549744">
        <ele>186.2</ele>
        <time>2014-02-12T09:09:56Z</time>
      </trkpt>
      <trkpt lat="43.457897" lon="1.549548">
        <ele>187.3</ele>
        <time>2014-02-12T09:10:15Z</time>
      </trkpt>
      <trkpt lat="43.457898" lon="1.549376">
        <ele>188.6</ele>
        <time>2014-02-12T09:10:29Z</time>
      </trkpt>
      <trkpt lat="43.457926" lon="1.549218">
        <ele>190.3</ele>
        <time>2014-02-12T09:10:43Z</time>
      </trkpt>
      <trkpt lat="43.457959" lon="1.549058">
        <ele>192.2</ele>
        <time>2014-02-12T09:10:59Z</time>
      </trkpt>
      <trkpt lat="43.457994" lon="1.548846">
        <ele>193.8</ele>
        <time>2014-02-12T09:11:18Z</time>
      </trkpt>
      <trkpt lat="43.458023" lon="1.548660">
        <ele>195.4</ele>
        <time>2014-02-12T09:11:36Z</time>
      </trkpt>
      <trkpt lat="43.458091" lon="1.548479">
        <ele>197.1</ele>
        <time>2014-02-12T09:11:55Z</time>
      </trkpt>
      <trkpt lat="43.458129" lon="1.548317">
        <ele>198.6</ele>
        <time>2014-02-12T09:12:11Z</time>
      </trkpt>
      <trkpt lat="43.458181" lon="1.548147">
        <ele>200.4</ele>
        <time>2014-02-12T09:12:29Z</time>
      </trkpt>
      <trkpt lat="43.458201" lon="1.547970">
        <ele>202.2</ele>
        <time>2014-02-12T09:12:48Z</time>
      </trkpt>
      <trkpt lat="43.458205" lon="1.547780">
        <ele>204.1</ele>
        <time>2014-02-12T09:13:07Z</time>
      </trkpt>
      <trkpt lat="43.458220" lon="1.547656">
        <ele>205.1</ele>
        <time>2014-02-12T09:13:26Z</time>
      </trkpt>
      <trkpt lat="43.458245" lon="1.547598">
        <ele>205.9</ele>
        <time>2014-02-12T09:14:35Z</time>
      </trkpt>
      <trkpt lat="43.458248" lon="1.547433">
        <ele>207.6</ele>
        <time>2014-02-12T09:14:50Z</time>
      </trkpt>
      <trkpt lat="43.458228" lon="1.547288">
        <ele>208.6</ele>
        <time>2014-02-12T09:15:07Z</time>
      </trkpt>
      <trkpt lat="43.458233" lon="1.547115">
        <ele>210.0</ele>
        <time>2014-02-12T09:15:23Z</time>
      </trkpt>
      <trkpt lat="43.458227" lon="1.546936">
        <ele>211.9</ele>
        <time>2014-02-12T09:15:41Z</time>
      </trkpt>
      <trkpt lat="43.458211" lon="1.546720">
        <ele>214.5</ele>
        <time>2014-02-12T09:16:02Z</time>
      </trkpt>
      <trkpt lat="43.458207" lon="1.546537">
        <ele>216.9</ele>
        <time>2014-02-12T09:16:22Z</time>
      </trkpt>
      <trkpt lat="43.458211" lon="1.546344">
        <ele>219.3</ele>
        <time>2014-02-12T09:16:41Z</time>
      </trkpt>
      <trkpt lat="43.458205" lon="1.546171">
        <ele>221.1</ele>
        <time>2014-02-12T09:16:58Z</time>
      </trkpt>
      <trkpt lat="43.458209" lon="1.545994">
        <ele>222.4</ele>
        <time>2014-02-12T09:17:14Z</time>
      </trkpt>
      <trkpt lat="43.458165" lon="1.545842">
        <ele>223.7</ele>
        <time>2014-02-12T09:17:30Z</time>
      </trkpt>
      <trkpt lat="43.458150" lon="1.545686">
        <ele>224.8</ele>
        <time>2014-02-12T09:17:45Z</time>
      </trkpt>
      <trkpt lat="43.458135" lon="1.545533">
        <ele>226.1</ele>
        <time>2014-02-12T09:17:59Z</time>
      </trkpt>
      <trkpt lat="43.458117" lon="1.545390">
        <ele>227.6</ele>
        <time>2014-02-12T09:18:15Z</time>
      </trkpt>
      <trkpt lat="43.458102" lon="1.545265">
        <ele>227.2</ele>
        <time>2014-02-12T09:20:44Z</time>
      </trkpt>
      <trkpt lat="43.458084" lon="1.545102">
        <ele>227.7</ele>
        <time>2014-02-12T09:20:58Z</time>
      </trkpt>
      <trkpt lat="43.458071" lon="1.544965">
        <ele>229.0</ele>
        <time>2014-02-12T09:21:15Z</time>
      </trkpt>
      <trkpt lat="43.458061" lon="1.544810">
        <ele>229.8</ele>
        <time>2014-02-12T09:21:30Z</time>
      </trkpt>
      <trkpt lat="43.458047" lon="1.544663">
        <ele>230.6</ele>
        <time>2014-02-12T09:21:43Z</time>
      </trkpt>
      <trkpt lat="43.458030" lon="1.544520">
        <ele>231.5</ele>
        <time>2014-02-12T09:21:58Z</time>
      </trkpt>
      <trkpt lat="43.458011" lon="1.544365">
        <ele>232.2</ele>
        <time>2014-02-12T09:22:10Z</time>
      </trkpt>
      <trkpt lat="43.458000" lon="1.544217">
        <ele>233.1</ele>
        <time>2014-02-12T09:22:24Z</time>
      </trkpt>
      <trkpt lat="43.457982" lon="1.544066">
        <ele>233.4</ele>
        <time>2014-02-12T09:22:36Z</time>
      </trkpt>
      <trkpt lat="43.457959" lon="1.543926">
        <ele>234.6</ele>
        <time>2014-02-12T09:22:50Z</time>
      </trkpt>
      <trkpt lat="43.457961" lon="1.543778">
        <ele>235.9</ele>
        <time>2014-02-12T09:23:02Z</time>
      </trkpt>
      <trkpt lat="43.457981" lon="1.543635">
        <ele>236.7</ele>
        <time>2014-02-12T09:23:12Z</time>
      </trkpt>
      <trkpt lat="43.458007" lon="1.543503">
        <ele>237.3</ele>
        <time>2014-02-12T09:23:22Z</time>
      </trkpt>
      <trkpt lat="43.458029" lon="1.543384">
        <ele>238.1</ele>
        <time>2014-02-12T09:23:39Z</time>
      </trkpt>
      <trkpt lat="43.458052" lon="1.543249">
        <ele>238.4</ele>
        <time>2014-02-12T09:23:50Z</time>
      </trkpt>
      <trkpt lat="43.458075" lon="1.543116">
        <ele>238.8</ele>
        <time>2014-02-12T09:24:01Z</time>
      </trkpt>
      <trkpt lat="43.458090" lon="1.542978">
        <ele>238.6</ele>
        <time>2014-02-12T09:24:12Z</time>
      </trkpt>
      <trkpt lat="43.458094" lon="1.542837">
        <ele>238.7</ele>
        <time>2014-02-12T09:24:24Z</time>
      </trkpt>
      <trkpt lat="43.458089" lon="1.542691">
        <ele>238.5</ele>
        <time>2014-02-12T09:24:40Z</time>
      </trkpt>
      <trkpt lat="43.458097" lon="1.542554">
        <ele>238.3</ele>
        <time>2014-02-12T09:24:51Z</time>
      </trkpt>
      <trkpt lat="43.458124" lon="1.542422">
        <ele>238.0</ele>
        <time>2014-02-12T09:25:03Z</time>
      </trkpt>
      <trkpt lat="43.458170" lon="1.542301">
        <ele>237.6</ele>
        <time>2014-02-12T09:25:15Z</time>
      </trkpt>
      <trkpt lat="43.458219" lon="1.542187">
        <ele>237.4</ele>
        <time>2014-02-12T09:25:26Z</time>
      </trkpt>
      <trkpt lat="43.458262" lon="1.542085">
        <ele>237.0</ele>
        <time>2014-02-12T09:25:38Z</time>
      </trkpt>
      <trkpt lat="43.458321" lon="1.541974">
        <ele>236.3</ele>
        <time>2014-02-12T09:25:51Z</time>
      </trkpt>
      <trkpt lat="43.458377" lon="1.541863">
        <ele>235.4</ele>
        <time>2014-02-12T09:26:05Z</time>
      </trkpt>
      <trkpt lat="43.458436" lon="1.541760">
        <ele>234.4</ele>
        <time>2014-02-12T09:26:17Z</time>
      </trkpt>
      <trkpt lat="43.458488" lon="1.541645">
        <ele>233.6</ele>
        <time>2014-02-12T09:26:29Z</time>
      </trkpt>
      <trkpt lat="43.458545" lon="1.541525">
        <ele>232.8</ele>
        <time>2014-02-12T09:26:41Z</time>
      </trkpt>
      <trkpt lat="43.458595" lon="1.541406">
        <ele>232.2</ele>
        <time>2014-02-12T09:26:52Z</time>
      </trkpt>
      <trkpt lat="43.458649" lon="1.541291">
        <ele>231.4</ele>
        <time>2014-02-12T09:27:04Z</time>
      </trkpt>
      <trkpt lat="43.458703" lon="1.541174">
        <ele>230.8</ele>
        <time>2014-02-12T09:27:15Z</time>
      </trkpt>
      <trkpt lat="43.458752" lon="1.541046">
        <ele>230.1</ele>
        <time>2014-02-12T09:27:26Z</time>
      </trkpt>
      <trkpt lat="43.458795" lon="1.540939">
        <ele>229.4</ele>
        <time>2014-02-12T09:27:37Z</time>
      </trkpt>
      <trkpt lat="43.458840" lon="1.540815">
        <ele>228.9</ele>
        <time>2014-02-12T09:27:48Z</time>
      </trkpt>
      <trkpt lat="43.458884" lon="1.540703">
        <ele>228.3</ele>
        <time>2014-02-12T09:27:59Z</time>
      </trkpt>
      <trkpt lat="43.458918" lon="1.540572">
        <ele>227.8</ele>
        <time>2014-02-12T09:28:11Z</time>
      </trkpt>
      <trkpt lat="43.458950" lon="1.540446">
        <ele>227.1</ele>
        <time>2014-02-12T09:28:22Z</time>
      </trkpt>
      <trkpt lat="43.458977" lon="1.540312">
        <ele>226.2</ele>
        <time>2014-02-12T09:28:34Z</time>
      </trkpt>
      <trkpt lat="43.459003" lon="1.540184">
        <ele>225.6</ele>
        <time>2014-02-12T09:28:45Z</time>
      </trkpt>
      <trkpt lat="43.459034" lon="1.540052">
        <ele>224.9</ele>
        <time>2014-02-12T09:28:57Z</time>
      </trkpt>
      <trkpt lat="43.459070" lon="1.539917">
        <ele>223.9</ele>
        <time>2014-02-12T09:29:10Z</time>
      </trkpt>
      <trkpt lat="43.459106" lon="1.539765">
        <ele>223.1</ele>
        <time>2014-02-12T09:29:24Z</time>
      </trkpt>
      <trkpt lat="43.459137" lon="1.539617">
        <ele>222.5</ele>
        <time>2014-02-12T09:29:36Z</time>
      </trkpt>
      <trkpt lat="43.459187" lon="1.539477">
        <ele>222.0</ele>
        <time>2014-02-12T09:29:48Z</time>
      </trkpt>
      <trkpt lat="43.459236" lon="1.539365">
        <ele>221.4</ele>
        <time>2014-02-12T09:29:59Z</time>
      </trkpt>
      <trkpt lat="43.459280" lon="1.539233">
        <ele>220.8</ele>
        <time>2014-02-12T09:30:10Z</time>
      </trkpt>
      <trkpt lat="43.459323" lon="1.539107">
        <ele>220.1</ele>
        <time>2014-02-12T09:30:21Z</time>
      </trkpt>
      <trkpt lat="43.459375" lon="1.538987">
        <ele>219.4</ele>
        <time>2014-02-12T09:30:33Z</time>
      </trkpt>
      <trkpt lat="43.459438" lon="1.538869">
        <ele>218.6</ele>
        <time>2014-02-12T09:30:45Z</time>
      </trkpt>
      <trkpt lat="43.459478" lon="1.538722">
        <ele>218.1</ele>
        <time>2014-02-12T09:30:58Z</time>
      </trkpt>
      <trkpt lat="43.459526" lon="1.538572">
        <ele>217.9</ele>
        <time>2014-02-12T09:31:10Z</time>
      </trkpt>
      <trkpt lat="43.459549" lon="1.538465">
        <ele>217.4</ele>
        <time>2014-02-12T09:31:25Z</time>
      </trkpt>
      <trkpt lat="43.459599" lon="1.538302">
        <ele>216.9</ele>
        <time>2014-02-12T09:32:04Z</time>
      </trkpt>
      <trkpt lat="43.459660" lon="1.538192">
        <ele>216.3</ele>
        <time>2014-02-12T09:32:17Z</time>
      </trkpt>
      <trkpt lat="43.459716" lon="1.538061">
        <ele>215.6</ele>
        <time>2014-02-12T09:32:30Z</time>
      </trkpt>
      <trkpt lat="43.459774" lon="1.537911">
        <ele>215.0</ele>
        <time>2014-02-12T09:32:44Z</time>
      </trkpt>
      <trkpt lat="43.459796" lon="1.537731">
        <ele>214.6</ele>
        <time>2014-02-12T09:32:57Z</time>
      </trkpt>
      <trkpt lat="43.459811" lon="1.537554">
        <ele>214.4</ele>
        <time>2014-02-12T09:33:10Z</time>
      </trkpt>
      <trkpt lat="43.459787" lon="1.537433">
        <ele>214.7</ele>
        <time>2014-02-12T09:33:58Z</time>
      </trkpt>
      <trkpt lat="43.459833" lon="1.537303">
        <ele>214.3</ele>
        <time>2014-02-12T09:34:10Z</time>
      </trkpt>
      <trkpt lat="43.459850" lon="1.537148">
        <ele>213.6</ele>
        <time>2014-02-12T09:34:23Z</time>
      </trkpt>
      <trkpt lat="43.459892" lon="1.537011">
        <ele>213.0</ele>
        <time>2014-02-12T09:34:34Z</time>
      </trkpt>
      <trkpt lat="43.459939" lon="1.536874">
        <ele>212.1</ele>
        <time>2014-02-12T09:34:45Z</time>
      </trkpt>
      <trkpt lat="43.459961" lon="1.536709">
        <ele>210.8</ele>
        <time>2014-02-12T09:35:01Z</time>
      </trkpt>
      <trkpt lat="43.460014" lon="1.536568">
        <ele>210.1</ele>
        <time>2014-02-12T09:35:16Z</time>
      </trkpt>
      <trkpt lat="43.460063" lon="1.536413">
        <ele>209.4</ele>
        <time>2014-02-12T09:35:28Z</time>
      </trkpt>
      <trkpt lat="43.460095" lon="1.536225">
        <ele>209.0</ele>
        <time>2014-02-12T09:35:41Z</time>
      </trkpt>
      <trkpt lat="43.460137" lon="1.536066">
        <ele>208.5</ele>
        <time>2014-02-12T09:35:54Z</time>
      </trkpt>
      <trkpt lat="43.460181" lon="1.535887">
        <ele>208.0</ele>
        <time>2014-02-12T09:36:12Z</time>
      </trkpt>
      <trkpt lat="43.460240" lon="1.535736">
        <ele>207.1</ele>
        <time>2014-02-12T09:36:28Z</time>
      </trkpt>
      <trkpt lat="43.460273" lon="1.535605">
        <ele>206.8</ele>
        <time>2014-02-12T09:37:09Z</time>
      </trkpt>
      <trkpt lat="43.460335" lon="1.535447">
        <ele>206.1</ele>
        <time>2014-02-12T09:37:27Z</time>
      </trkpt>
      <trkpt lat="43.460381" lon="1.535276">
        <ele>205.2</ele>
        <time>2014-02-12T09:37:45Z</time>
      </trkpt>
      <trkpt lat="43.460434" lon="1.535097">
        <ele>204.4</ele>
        <time>2014-02-12T09:38:03Z</time>
      </trkpt>
      <trkpt lat="43.460478" lon="1.534938">
        <ele>203.8</ele>
        <time>2014-02-12T09:38:20Z</time>
      </trkpt>
      <trkpt lat="43.460541" lon="1.534758">
        <ele>202.4</ele>
        <time>2014-02-12T09:38:40Z</time>
      </trkpt>
      <trkpt lat="43.460584" lon="1.534554">
        <ele>201.4</ele>
        <time>2014-02-12T09:39:00Z</time>
      </trkpt>
      <trkpt lat="43.460646" lon="1.534355">
        <ele>201.0</ele>
        <time>2014-02-12T09:39:14Z</time>
      </trkpt>
      <trkpt lat="43.460714" lon="1.534209">
        <ele>200.2</ele>
        <time>2014-02-12T09:39:28Z</time>
      </trkpt>
      <trkpt lat="43.460784" lon="1.534075">
        <ele>199.0</ele>
        <time>2014-02-12T09:39:44Z</time>
      </trkpt>
      <trkpt lat="43.460900" lon="1.533972">
        <ele>197.5</ele>
        <time>2014-02-12T09:40:02Z</time>
      </trkpt>
      <trkpt lat="43.460968" lon="1.533792">
        <ele>196.4</ele>
        <time>2014-02-12T09:40:21Z</time>
      </trkpt>
      <trkpt lat="43.461061" lon="1.533590">
        <ele>195.6</ele>
        <time>2014-02-12T09:40:41Z</time>
      </trkpt>
      <trkpt lat="43.461123" lon="1.533376">
        <ele>195.0</ele>
        <time>2014-02-12T09:41:03Z</time>
      </trkpt>
      <trkpt lat="43.461166" lon="1.533274">
        <ele>195.2</ele>
        <time>2014-02-12T09:41:34Z</time>
      </trkpt>
      <trkpt lat="43.461154" lon="1.533258">
        <ele>195.0</ele>
        <time>2014-02-12T09:42:14Z</time>
      </trkpt>
      <trkpt lat="43.461198" lon="1.533142">
        <ele>195.3</ele>
        <time>2014-02-12T09:42:43Z</time>
      </trkpt>
      <trkpt lat="43.461260" lon="1.533010">
        <ele>195.5</ele>
        <time>2014-02-12T09:43:03Z</time>
      </trkpt>
      <trkpt lat="43.461219" lon="1.532919">
        <ele>195.7</ele>
        <time>2014-02-12T09:43:35Z</time>
      </trkpt>
      <trkpt lat="43.461271" lon="1.532860">
        <ele>195.4</ele>
        <time>2014-02-12T09:44:01Z</time>
      </trkpt>
      <trkpt lat="43.461320" lon="1.532750">
        <ele>195.1</ele>
        <time>2014-02-12T09:44:21Z</time>
      </trkpt>
      <trkpt lat="43.461396" lon="1.532611">
        <ele>194.8</ele>
        <time>2014-02-12T09:44:38Z</time>
      </trkpt>
      <trkpt lat="43.461451" lon="1.532469">
        <ele>194.2</ele>
        <time>2014-02-12T09:44:55Z</time>
      </trkpt>
      <trkpt lat="43.461520" lon="1.532289">
        <ele>193.7</ele>
        <time>2014-02-12T09:45:13Z</time>
      </trkpt>
      <trkpt lat="43.461567" lon="1.532091">
        <ele>193.0</ele>
        <time>2014-02-12T09:45:30Z</time>
      </trkpt>
      <trkpt lat="43.461638" lon="1.531961">
        <ele>192.6</ele>
        <time>2014-02-12T09:45:44Z</time>
      </trkpt>
      <trkpt lat="43.461663" lon="1.531797">
        <ele>192.1</ele>
        <time>2014-02-12T09:46:03Z</time>
      </trkpt>
      <trkpt lat="43.461648" lon="1.531626">
        <ele>191.3</ele>
        <time>2014-02-12T09:46:21Z</time>
      </trkpt>
      <trkpt lat="43.461691" lon="1.531572">
        <ele>191.3</ele>
        <time>2014-02-12T09:46:54Z</time>
      </trkpt>
      <trkpt lat="43.461633" lon="1.531455">
        <ele>191.2</ele>
        <time>2014-02-12T09:47:12Z</time>
      </trkpt>
      <trkpt lat="43.461605" lon="1.531324">
        <ele>190.6</ele>
        <time>2014-02-12T09:47:27Z</time>
        <name>La Ginestiere</name>
      </trkpt>
      <trkpt lat="43.461693" lon="1.531261">
        <ele>190.8</ele>
        <time>2014-02-12T09:47:47Z</time>
      </trkpt>
      <trkpt lat="43.461803" lon="1.531225">
        <ele>190.6</ele>
        <time>2014-02-12T09:48:03Z</time>
      </trkpt>
      <trkpt lat="43.461938" lon="1.531172">
        <ele>190.1</ele>
        <time>2014-02-12T09:48:17Z</time>
      </trkpt>
      <trkpt lat="43.462054" lon="1.531121">
        <ele>189.8</ele>
        <time>2014-02-12T09:48:30Z</time>
      </trkpt>
      <trkpt lat="43.462163" lon="1.531078">
        <ele>189.8</ele>
        <time>2014-02-12T09:48:43Z</time>
      </trkpt>
      <trkpt lat="43.462259" lon="1.531017">
        <ele>189.8</ele>
        <time>2014-02-12T09:48:55Z</time>
      </trkpt>
      <trkpt lat="43.462353" lon="1.530976">
        <ele>189.7</ele>
        <time>2014-02-12T09:49:07Z</time>
      </trkpt>
      <trkpt lat="43.462454" lon="1.530923">
        <ele>189.6</ele>
        <time>2014-02-12T09:49:20Z</time>
      </trkpt>
      <trkpt lat="43.462544" lon="1.530861">
        <ele>189.3</ele>
        <time>2014-02-12T09:49:33Z</time>
      </trkpt>
      <trkpt lat="43.462664" lon="1.530806">
        <ele>189.4</ele>
        <time>2014-02-12T09:49:47Z</time>
      </trkpt>
      <trkpt lat="43.462788" lon="1.530752">
        <ele>189.3</ele>
        <time>2014-02-12T09:49:59Z</time>
      </trkpt>
      <trkpt lat="43.462913" lon="1.530688">
        <ele>189.3</ele>
        <time>2014-02-12T09:50:13Z</time>
      </trkpt>
      <trkpt lat="43.463035" lon="1.530629">
        <ele>189.1</ele>
        <time>2014-02-12T09:50:26Z</time>
      </trkpt>
      <trkpt lat="43.463166" lon="1.530569">
        <ele>189.2</ele>
        <time>2014-02-12T09:50:38Z</time>
      </trkpt>
      <trkpt lat="43.463274" lon="1.530517">
        <ele>189.4</ele>
        <time>2014-02-12T09:50:48Z</time>
      </trkpt>
      <trkpt lat="43.463383" lon="1.530452">
        <ele>189.6</ele>
        <time>2014-02-12T09:50:59Z</time>
      </trkpt>
      <trkpt lat="43.463494" lon="1.530363">
        <ele>190.1</ele>
        <time>2014-02-12T09:51:10Z</time>
      </trkpt>
      <trkpt lat="43.463576" lon="1.530319">
        <ele>190.3</ele>
        <time>2014-02-12T09:51:21Z</time>
      </trkpt>
      <trkpt lat="43.463673" lon="1.530296">
        <ele>190.3</ele>
        <time>2014-02-12T09:51:36Z</time>
      </trkpt>
      <trkpt lat="43.463782" lon="1.530301">
        <ele>191.0</ele>
        <time>2014-02-12T09:51:46Z</time>
      </trkpt>
      <trkpt lat="43.463877" lon="1.530255">
        <ele>191.0</ele>
        <time>2014-02-12T09:51:56Z</time>
      </trkpt>
      <trkpt lat="43.463974" lon="1.530222">
        <ele>191.4</ele>
        <time>2014-02-12T09:52:06Z</time>
      </trkpt>
      <trkpt lat="43.464080" lon="1.530204">
        <ele>192.2</ele>
        <time>2014-02-12T09:52:19Z</time>
      </trkpt>
      <trkpt lat="43.464200" lon="1.530217">
        <ele>192.3</ele>
        <time>2014-02-12T09:52:30Z</time>
      </trkpt>
      <trkpt lat="43.464308" lon="1.530229">
        <ele>192.7</ele>
        <time>2014-02-12T09:52:42Z</time>
      </trkpt>
      <trkpt lat="43.464437" lon="1.530236">
        <ele>193.3</ele>
        <time>2014-02-12T09:52:54Z</time>
      </trkpt>
      <trkpt lat="43.464562" lon="1.530247">
        <ele>193.8</ele>
        <time>2014-02-12T09:53:05Z</time>
      </trkpt>
      <trkpt lat="43.464693" lon="1.530268">
        <ele>194.8</ele>
        <time>2014-02-12T09:53:18Z</time>
      </trkpt>
      <trkpt lat="43.464819" lon="1.530290">
        <ele>195.5</ele>
        <time>2014-02-12T09:53:30Z</time>
      </trkpt>
      <trkpt lat="43.464960" lon="1.530328">
        <ele>196.5</ele>
        <time>2014-02-12T09:53:43Z</time>
      </trkpt>
      <trkpt lat="43.465085" lon="1.530416">
        <ele>197.4</ele>
        <time>2014-02-12T09:53:56Z</time>
      </trkpt>
      <trkpt lat="43.465194" lon="1.530506">
        <ele>197.9</ele>
        <time>2014-02-12T09:54:06Z</time>
      </trkpt>
      <trkpt lat="43.465242" lon="1.530600">
        <ele>198.6</ele>
        <time>2014-02-12T09:54:14Z</time>
      </trkpt>
      <trkpt lat="43.465264" lon="1.530764">
        <ele>199.8</ele>
        <time>2014-02-12T09:54:32Z</time>
      </trkpt>
      <trkpt lat="43.465279" lon="1.530928">
        <ele>200.4</ele>
        <time>2014-02-12T09:54:49Z</time>
      </trkpt>
      <trkpt lat="43.465299" lon="1.531073">
        <ele>201.3</ele>
        <time>2014-02-12T09:55:07Z</time>
      </trkpt>
      <trkpt lat="43.465331" lon="1.531200">
        <ele>201.9</ele>
        <time>2014-02-12T09:55:24Z</time>
      </trkpt>
      <trkpt lat="43.465279" lon="1.531330">
        <ele>202.8</ele>
        <time>2014-02-12T09:55:38Z</time>
      </trkpt>
      <trkpt lat="43.465219" lon="1.531444">
        <ele>203.2</ele>
        <time>2014-02-12T09:55:51Z</time>
      </trkpt>
      <trkpt lat="43.465186" lon="1.531585">
        <ele>204.0</ele>
        <time>2014-02-12T09:56:04Z</time>
      </trkpt>
      <trkpt lat="43.465140" lon="1.531701">
        <ele>204.9</ele>
        <time>2014-02-12T09:56:24Z</time>
      </trkpt>
      <trkpt lat="43.465122" lon="1.531829">
        <ele>205.6</ele>
        <time>2014-02-12T09:56:38Z</time>
      </trkpt>
      <trkpt lat="43.465078" lon="1.531961">
        <ele>206.1</ele>
        <time>2014-02-12T09:56:49Z</time>
      </trkpt>
      <trkpt lat="43.465037" lon="1.532097">
        <ele>207.3</ele>
        <time>2014-02-12T09:57:01Z</time>
      </trkpt>
      <trkpt lat="43.465007" lon="1.532211">
        <ele>207.8</ele>
        <time>2014-02-12T09:57:11Z</time>
      </trkpt>
      <trkpt lat="43.465046" lon="1.532334">
        <ele>209.7</ele>
        <time>2014-02-12T09:58:13Z</time>
      </trkpt>
      <trkpt lat="43.465114" lon="1.532412">
        <ele>209.4</ele>
        <time>2014-02-12T09:58:25Z</time>
      </trkpt>
      <trkpt lat="43.465190" lon="1.532489">
        <ele>208.6</ele>
        <time>2014-02-12T09:58:36Z</time>
      </trkpt>
      <trkpt lat="43.465273" lon="1.532565">
        <ele>207.7</ele>
        <time>2014-02-12T09:58:48Z</time>
      </trkpt>
      <trkpt lat="43.465348" lon="1.532642">
        <ele>206.9</ele>
        <time>2014-02-12T09:58:57Z</time>
      </trkpt>
      <trkpt lat="43.465420" lon="1.532707">
        <ele>205.9</ele>
        <time>2014-02-12T09:59:06Z</time>
      </trkpt>
      <trkpt lat="43.465500" lon="1.532771">
        <ele>204.9</ele>
        <time>2014-02-12T09:59:15Z</time>
      </trkpt>
      <trkpt lat="43.465571" lon="1.532847">
        <ele>203.8</ele>
        <time>2014-02-12T09:59:24Z</time>
      </trkpt>
      <trkpt lat="43.465646" lon="1.532915">
        <ele>202.4</ele>
        <time>2014-02-12T09:59:33Z</time>
      </trkpt>
      <trkpt lat="43.465725" lon="1.532993">
        <ele>201.1</ele>
        <time>2014-02-12T09:59:42Z</time>
      </trkpt>
      <trkpt lat="43.465800" lon="1.533063">
        <ele>199.9</ele>
        <time>2014-02-12T09:59:51Z</time>
      </trkpt>
      <trkpt lat="43.465882" lon="1.533145">
        <ele>198.7</ele>
        <time>2014-02-12T10:00:01Z</time>
      </trkpt>
      <trkpt lat="43.465961" lon="1.533212">
        <ele>197.9</ele>
        <time>2014-02-12T10:00:11Z</time>
      </trkpt>
      <trkpt lat="43.466030" lon="1.533306">
        <ele>197.2</ele>
        <time>2014-02-12T10:00:20Z</time>
      </trkpt>
      <trkpt lat="43.466099" lon="1.533407">
        <ele>196.6</ele>
        <time>2014-02-12T10:00:29Z</time>
      </trkpt>
      <trkpt lat="43.466179" lon="1.533504">
        <ele>196.6</ele>
        <time>2014-02-12T10:00:38Z</time>
      </trkpt>
      <trkpt lat="43.466248" lon="1.533599">
        <ele>197.2</ele>
        <time>2014-02-12T10:00:47Z</time>
      </trkpt>
      <trkpt lat="43.466317" lon="1.533691">
        <ele>198.2</ele>
        <time>2014-02-12T10:00:57Z</time>
      </trkpt>
      <trkpt lat="43.466389" lon="1.533775">
        <ele>199.2</ele>
        <time>2014-02-12T10:01:08Z</time>
      </trkpt>
      <trkpt lat="43.466457" lon="1.533864">
        <ele>201.0</ele>
        <time>2014-02-12T10:01:19Z</time>
      </trkpt>
      <trkpt lat="43.466520" lon="1.533954">
        <ele>202.9</ele>
        <time>2014-02-12T10:01:31Z</time>
      </trkpt>
      <trkpt lat="43.466569" lon="1.534049">
        <ele>204.9</ele>
        <time>2014-02-12T10:01:44Z</time>
      </trkpt>
      <trkpt lat="43.466635" lon="1.534140">
        <ele>207.1</ele>
        <time>2014-02-12T10:01:58Z</time>
      </trkpt>
      <trkpt lat="43.466708" lon="1.534230">
        <ele>209.1</ele>
        <time>2014-02-12T10:02:11Z</time>
      </trkpt>
      <trkpt lat="43.466757" lon="1.534327">
        <ele>210.8</ele>
        <time>2014-02-12T10:02:23Z</time>
      </trkpt>
      <trkpt lat="43.466835" lon="1.534421">
        <ele>212.7</ele>
        <time>2014-02-12T10:02:35Z</time>
      </trkpt>
      <trkpt lat="43.466901" lon="1.534510">
        <ele>214.4</ele>
        <time>2014-02-12T10:02:47Z</time>
      </trkpt>
      <trkpt lat="43.466943" lon="1.534599">
        <ele>215.7</ele>
        <time>2014-02-12T10:02:59Z</time>
      </trkpt>
      <trkpt lat="43.466974" lon="1.534684">
        <ele>216.5</ele>
        <time>2014-02-12T10:03:13Z</time>
      </trkpt>
      <trkpt lat="43.467045" lon="1.534795">
        <ele>217.2</ele>
        <time>2014-02-12T10:03:23Z</time>
      </trkpt>
      <trkpt lat="43.467127" lon="1.534868">
        <ele>217.2</ele>
        <time>2014-02-12T10:03:32Z</time>
      </trkpt>
      <trkpt lat="43.467188" lon="1.534954">
        <ele>216.8</ele>
        <time>2014-02-12T10:03:42Z</time>
      </trkpt>
      <trkpt lat="43.467266" lon="1.535035">
        <ele>216.4</ele>
        <time>2014-02-12T10:03:52Z</time>
      </trkpt>
      <trkpt lat="43.467340" lon="1.535122">
        <ele>216.0</ele>
        <time>2014-02-12T10:04:03Z</time>
      </trkpt>
      <trkpt lat="43.467409" lon="1.535201">
        <ele>215.1</ele>
        <time>2014-02-12T10:04:12Z</time>
      </trkpt>
      <trkpt lat="43.467485" lon="1.535275">
        <ele>214.0</ele>
        <time>2014-02-12T10:04:22Z</time>
      </trkpt>
      <trkpt lat="43.467566" lon="1.535357">
        <ele>213.0</ele>
        <time>2014-02-12T10:04:32Z</time>
      </trkpt>
      <trkpt lat="43.467650" lon="1.535426">
        <ele>211.8</ele>
        <time>2014-02-12T10:04:41Z</time>
      </trkpt>
      <trkpt lat="43.467735" lon="1.535492">
        <ele>210.5</ele>
        <time>2014-02-12T10:04:51Z</time>
      </trkpt>
      <trkpt lat="43.467822" lon="1.535555">
        <ele>209.1</ele>
        <time>2014-02-12T10:05:01Z</time>
      </trkpt>
      <trkpt lat="43.467892" lon="1.535620">
        <ele>207.6</ele>
        <time>2014-02-12T10:05:11Z</time>
      </trkpt>
      <trkpt lat="43.467967" lon="1.535684">
        <ele>206.4</ele>
        <time>2014-02-12T10:05:21Z</time>
      </trkpt>
      <trkpt lat="43.468054" lon="1.535736">
        <ele>205.1</ele>
        <time>2014-02-12T10:05:32Z</time>
      </trkpt>
      <trkpt lat="43.468142" lon="1.535796">
        <ele>203.7</ele>
        <time>2014-02-12T10:05:43Z</time>
      </trkpt>
      <trkpt lat="43.468224" lon="1.535864">
        <ele>201.7</ele>
        <time>2014-02-12T10:05:55Z</time>
      </trkpt>
      <trkpt lat="43.468311" lon="1.535924">
        <ele>200.5</ele>
        <time>2014-02-12T10:06:06Z</time>
      </trkpt>
      <trkpt lat="43.468398" lon="1.535976">
        <ele>199.3</ele>
        <time>2014-02-12T10:06:17Z</time>
      </trkpt>
      <trkpt lat="43.468481" lon="1.535989">
        <ele>198.3</ele>
        <time>2014-02-12T10:06:35Z</time>
        <name>Patras</name>
      </trkpt>
      <trkpt lat="43.468561" lon="1.536070">
        <ele>197.9</ele>
        <time>2014-02-12T10:06:46Z</time>
      </trkpt>
      <trkpt lat="43.468598" lon="1.536086">
        <ele>197.5</ele>
        <time>2014-02-12T10:07:09Z</time>
      </trkpt>
      <trkpt lat="43.468645" lon="1.536205">
        <ele>197.2</ele>
        <time>2014-02-12T10:07:19Z</time>
      </trkpt>
      <trkpt lat="43.468720" lon="1.536288">
        <ele>197.2</ele>
        <time>2014-02-12T10:07:29Z</time>
      </trkpt>
      <trkpt lat="43.468780" lon="1.536383">
        <ele>197.3</ele>
        <time>2014-02-12T10:07:38Z</time>
      </trkpt>
      <trkpt lat="43.468801" lon="1.536515">
        <ele>197.5</ele>
        <time>2014-02-12T10:07:48Z</time>
      </trkpt>
      <trkpt lat="43.468799" lon="1.536631">
        <ele>198.0</ele>
        <time>2014-02-12T10:07:58Z</time>
      </trkpt>
      <trkpt lat="43.468808" lon="1.536777">
        <ele>198.6</ele>
        <time>2014-02-12T10:08:12Z</time>
      </trkpt>
      <trkpt lat="43.468825" lon="1.536920">
        <ele>199.2</ele>
        <time>2014-02-12T10:08:24Z</time>
      </trkpt>
      <trkpt lat="43.468835" lon="1.537061">
        <ele>199.9</ele>
        <time>2014-02-12T10:08:37Z</time>
      </trkpt>
      <trkpt lat="43.468850" lon="1.537180">
        <ele>200.6</ele>
        <time>2014-02-12T10:08:48Z</time>
      </trkpt>
      <trkpt lat="43.468867" lon="1.537308">
        <ele>201.4</ele>
        <time>2014-02-12T10:08:59Z</time>
      </trkpt>
      <trkpt lat="43.468878" lon="1.537433">
        <ele>202.7</ele>
        <time>2014-02-12T10:09:12Z</time>
      </trkpt>
      <trkpt lat="43.468876" lon="1.537582">
        <ele>203.9</ele>
        <time>2014-02-12T10:09:23Z</time>
      </trkpt>
      <trkpt lat="43.468886" lon="1.537732">
        <ele>205.0</ele>
        <time>2014-02-12T10:09:34Z</time>
      </trkpt>
      <trkpt lat="43.468898" lon="1.537870">
        <ele>206.6</ele>
        <time>2014-02-12T10:09:45Z</time>
      </trkpt>
      <trkpt lat="43.468915" lon="1.537994">
        <ele>207.7</ele>
        <time>2014-02-12T10:09:56Z</time>
      </trkpt>
      <trkpt lat="43.468935" lon="1.538121">
        <ele>209.4</ele>
        <time>2014-02-12T10:10:08Z</time>
      </trkpt>
      <trkpt lat="43.468949" lon="1.538228">
        <ele>211.1</ele>
        <time>2014-02-12T10:10:32Z</time>
      </trkpt>
      <trkpt lat="43.468977" lon="1.538376">
        <ele>212.2</ele>
        <time>2014-02-12T10:10:43Z</time>
      </trkpt>
      <trkpt lat="43.469017" lon="1.538499">
        <ele>213.3</ele>
        <time>2014-02-12T10:10:55Z</time>
      </trkpt>
      <trkpt lat="43.469068" lon="1.538615">
        <ele>214.3</ele>
        <time>2014-02-12T10:11:06Z</time>
      </trkpt>
      <trkpt lat="43.469111" lon="1.538746">
        <ele>215.4</ele>
        <time>2014-02-12T10:11:17Z</time>
      </trkpt>
      <trkpt lat="43.469148" lon="1.538872">
        <ele>216.4</ele>
        <time>2014-02-12T10:11:27Z</time>
      </trkpt>
      <trkpt lat="43.469193" lon="1.538988">
        <ele>217.4</ele>
        <time>2014-02-12T10:11:38Z</time>
      </trkpt>
      <trkpt lat="43.469221" lon="1.539120">
        <ele>218.5</ele>
        <time>2014-02-12T10:11:49Z</time>
      </trkpt>
      <trkpt lat="43.469260" lon="1.539238">
        <ele>219.6</ele>
        <time>2014-02-12T10:12:00Z</time>
      </trkpt>
      <trkpt lat="43.469299" lon="1.539357">
        <ele>220.2</ele>
        <time>2014-02-12T10:12:10Z</time>
      </trkpt>
      <trkpt lat="43.469343" lon="1.539468">
        <ele>220.7</ele>
        <time>2014-02-12T10:12:19Z</time>
      </trkpt>
      <trkpt lat="43.469375" lon="1.539604">
        <ele>220.9</ele>
        <time>2014-02-12T10:12:29Z</time>
      </trkpt>
      <trkpt lat="43.469392" lon="1.539730">
        <ele>221.1</ele>
        <time>2014-02-12T10:12:38Z</time>
      </trkpt>
      <trkpt lat="43.469421" lon="1.539859">
        <ele>221.6</ele>
        <time>2014-02-12T10:12:47Z</time>
      </trkpt>
      <trkpt lat="43.469449" lon="1.539993">
        <ele>221.6</ele>
        <time>2014-02-12T10:12:56Z</time>
      </trkpt>
      <trkpt lat="43.469467" lon="1.540109">
        <ele>221.6</ele>
        <time>2014-02-12T10:13:05Z</time>
      </trkpt>
      <trkpt lat="43.469485" lon="1.540238">
        <ele>222.1</ele>
        <time>2014-02-12T10:13:15Z</time>
      </trkpt>
      <trkpt lat="43.469503" lon="1.540358">
        <ele>222.3</ele>
        <time>2014-02-12T10:13:24Z</time>
      </trkpt>
      <trkpt lat="43.469519" lon="1.540494">
        <ele>222.2</ele>
        <time>2014-02-12T10:13:34Z</time>
      </trkpt>
      <trkpt lat="43.469536" lon="1.540621">
        <ele>222.5</ele>
        <time>2014-02-12T10:13:44Z</time>
      </trkpt>
      <trkpt lat="43.469560" lon="1.540736">
        <ele>222.8</ele>
        <time>2014-02-12T10:13:54Z</time>
      </trkpt>
      <trkpt lat="43.469567" lon="1.540871">
        <ele>222.9</ele>
        <time>2014-02-12T10:14:04Z</time>
      </trkpt>
      <trkpt lat="43.469583" lon="1.541013">
        <ele>223.0</ele>
        <time>2014-02-12T10:14:14Z</time>
      </trkpt>
      <trkpt lat="43.469616" lon="1.541158">
        <ele>223.0</ele>
        <time>2014-02-12T10:14:24Z</time>
      </trkpt>
      <trkpt lat="43.469631" lon="1.541285">
        <ele>223.3</ele>
        <time>2014-02-12T10:14:33Z</time>
      </trkpt>
      <trkpt lat="43.469659" lon="1.541416">
        <ele>223.9</ele>
        <time>2014-02-12T10:14:43Z</time>
      </trkpt>
      <trkpt lat="43.469675" lon="1.541558">
        <ele>224.2</ele>
        <time>2014-02-12T10:14:53Z</time>
      </trkpt>
      <trkpt lat="43.469705" lon="1.541686">
        <ele>225.0</ele>
        <time>2014-02-12T10:15:04Z</time>
      </trkpt>
      <trkpt lat="43.469763" lon="1.541808">
        <ele>225.6</ele>
        <time>2014-02-12T10:15:16Z</time>
      </trkpt>
      <trkpt lat="43.469825" lon="1.541936">
        <ele>226.2</ele>
        <time>2014-02-12T10:15:26Z</time>
      </trkpt>
      <trkpt lat="43.469891" lon="1.542021">
        <ele>226.7</ele>
        <time>2014-02-12T10:15:35Z</time>
      </trkpt>
      <trkpt lat="43.469961" lon="1.542048">
        <ele>227.4</ele>
        <time>2014-02-12T10:15:46Z</time>
      </trkpt>
      <trkpt lat="43.470015" lon="1.541962">
        <ele>227.6</ele>
        <time>2014-02-12T10:16:01Z</time>
      </trkpt>
      <trkpt lat="43.470104" lon="1.541902">
        <ele>227.7</ele>
        <time>2014-02-12T10:16:11Z</time>
      </trkpt>
      <trkpt lat="43.470198" lon="1.541849">
        <ele>228.1</ele>
        <time>2014-02-12T10:16:24Z</time>
      </trkpt>
      <trkpt lat="43.470281" lon="1.541795">
        <ele>228.0</ele>
        <time>2014-02-12T10:16:36Z</time>
      </trkpt>
      <trkpt lat="43.470368" lon="1.541742">
        <ele>228.1</ele>
        <time>2014-02-12T10:16:48Z</time>
      </trkpt>
      <trkpt lat="43.470455" lon="1.541717">
        <ele>228.0</ele>
        <time>2014-02-12T10:16:58Z</time>
      </trkpt>
      <trkpt lat="43.470544" lon="1.541668">
        <ele>228.4</ele>
        <time>2014-02-12T10:17:09Z</time>
      </trkpt>
      <trkpt lat="43.470621" lon="1.541618">
        <ele>228.4</ele>
        <time>2014-02-12T10:17:20Z</time>
      </trkpt>
      <trkpt lat="43.470701" lon="1.541578">
        <ele>228.5</ele>
        <time>2014-02-12T10:17:31Z</time>
      </trkpt>
      <trkpt lat="43.470794" lon="1.541527">
        <ele>228.5</ele>
        <time>2014-02-12T10:17:41Z</time>
      </trkpt>
      <trkpt lat="43.470878" lon="1.541473">
        <ele>228.9</ele>
        <time>2014-02-12T10:17:52Z</time>
      </trkpt>
      <trkpt lat="43.470974" lon="1.541413">
        <ele>229.2</ele>
        <time>2014-02-12T10:18:03Z</time>
      </trkpt>
      <trkpt lat="43.471060" lon="1.541363">
        <ele>229.7</ele>
        <time>2014-02-12T10:18:14Z</time>
      </trkpt>
      <trkpt lat="43.471145" lon="1.541315">
        <ele>230.2</ele>
        <time>2014-02-12T10:18:25Z</time>
      </trkpt>
      <trkpt lat="43.471234" lon="1.541264">
        <ele>230.9</ele>
        <time>2014-02-12T10:18:36Z</time>
      </trkpt>
      <trkpt lat="43.471339" lon="1.541208">
        <ele>231.4</ele>
        <time>2014-02-12T10:18:47Z</time>
      </trkpt>
      <trkpt lat="43.471425" lon="1.541165">
        <ele>231.6</ele>
        <time>2014-02-12T10:18:59Z</time>
      </trkpt>
      <trkpt lat="43.471513" lon="1.541104">
        <ele>232.1</ele>
        <time>2014-02-12T10:19:11Z</time>
      </trkpt>
      <trkpt lat="43.471605" lon="1.541065">
        <ele>233.1</ele>
        <time>2014-02-12T10:19:23Z</time>
      </trkpt>
      <trkpt lat="43.471708" lon="1.541027">
        <ele>233.6</ele>
        <time>2014-02-12T10:19:35Z</time>
      </trkpt>
      <trkpt lat="43.471818" lon="1.540991">
        <ele>233.9</ele>
        <time>2014-02-12T10:19:47Z</time>
      </trkpt>
      <trkpt lat="43.471902" lon="1.540937">
        <ele>234.0</ele>
        <time>2014-02-12T10:20:00Z</time>
      </trkpt>
      <trkpt lat="43.471961" lon="1.540902">
        <ele>234.4</ele>
        <time>2014-02-12T10:21:10Z</time>
      </trkpt>
      <trkpt lat="43.472065" lon="1.540907">
        <ele>234.3</ele>
        <time>2014-02-12T10:21:24Z</time>
      </trkpt>
      <trkpt lat="43.472196" lon="1.540887">
        <ele>233.8</ele>
        <time>2014-02-12T10:21:36Z</time>
      </trkpt>
      <trkpt lat="43.472300" lon="1.540819">
        <ele>233.1</ele>
        <time>2014-02-12T10:21:50Z</time>
      </trkpt>
      <trkpt lat="43.472415" lon="1.540865">
        <ele>233.1</ele>
        <time>2014-02-12T10:22:03Z</time>
      </trkpt>
      <trkpt lat="43.472519" lon="1.540970">
        <ele>232.7</ele>
        <time>2014-02-12T10:22:17Z</time>
      </trkpt>
      <trkpt lat="43.472613" lon="1.541055">
        <ele>232.5</ele>
        <time>2014-02-12T10:22:31Z</time>
        <name>L_Orfevre</name>
      </trkpt>
      <trkpt lat="43.472666" lon="1.541162">
        <ele>232.6</ele>
        <time>2014-02-12T10:22:54Z</time>
      </trkpt>
      <trkpt lat="43.472722" lon="1.541275">
        <ele>232.3</ele>
        <time>2014-02-12T10:23:09Z</time>
      </trkpt>
      <trkpt lat="43.472787" lon="1.541368">
        <ele>232.0</ele>
        <time>2014-02-12T10:23:22Z</time>
      </trkpt>
      <trkpt lat="43.472859" lon="1.541460">
        <ele>231.8</ele>
        <time>2014-02-12T10:23:34Z</time>
      </trkpt>
      <trkpt lat="43.472932" lon="1.541570">
        <ele>231.3</ele>
        <time>2014-02-12T10:23:45Z</time>
      </trkpt>
      <trkpt lat="43.473004" lon="1.541653">
        <ele>231.2</ele>
        <time>2014-02-12T10:23:56Z</time>
      </trkpt>
      <trkpt lat="43.473067" lon="1.541763">
        <ele>230.6</ele>
        <time>2014-02-12T10:24:08Z</time>
      </trkpt>
      <trkpt lat="43.473092" lon="1.541886">
        <ele>229.9</ele>
        <time>2014-02-12T10:24:18Z</time>
      </trkpt>
      <trkpt lat="43.473081" lon="1.542022">
        <ele>229.9</ele>
        <time>2014-02-12T10:24:29Z</time>
      </trkpt>
      <trkpt lat="43.473018" lon="1.542116">
        <ele>229.5</ele>
        <time>2014-02-12T10:24:40Z</time>
      </trkpt>
      <trkpt lat="43.472935" lon="1.542209">
        <ele>229.2</ele>
        <time>2014-02-12T10:24:51Z</time>
      </trkpt>
      <trkpt lat="43.472862" lon="1.542306">
        <ele>229.2</ele>
        <time>2014-02-12T10:25:01Z</time>
      </trkpt>
      <trkpt lat="43.472788" lon="1.542411">
        <ele>228.8</ele>
        <time>2014-02-12T10:25:14Z</time>
      </trkpt>
      <trkpt lat="43.472753" lon="1.542542">
        <ele>228.9</ele>
        <time>2014-02-12T10:25:25Z</time>
      </trkpt>
      <trkpt lat="43.472688" lon="1.542643">
        <ele>228.6</ele>
        <time>2014-02-12T10:25:36Z</time>
      </trkpt>
      <trkpt lat="43.472619" lon="1.542729">
        <ele>228.2</ele>
        <time>2014-02-12T10:25:45Z</time>
      </trkpt>
      <trkpt lat="43.472572" lon="1.542831">
        <ele>227.7</ele>
        <time>2014-02-12T10:25:56Z</time>
      </trkpt>
      <trkpt lat="43.472508" lon="1.542925">
        <ele>228.0</ele>
        <time>2014-02-12T10:26:07Z</time>
      </trkpt>
      <trkpt lat="43.472432" lon="1.543071">
        <ele>227.4</ele>
        <time>2014-02-12T10:26:19Z</time>
      </trkpt>
      <trkpt lat="43.472374" lon="1.543224">
        <ele>226.8</ele>
        <time>2014-02-12T10:26:33Z</time>
      </trkpt>
      <trkpt lat="43.472346" lon="1.543377">
        <ele>225.7</ele>
        <time>2014-02-12T10:26:44Z</time>
      </trkpt>
      <trkpt lat="43.472325" lon="1.543509">
        <ele>224.8</ele>
        <time>2014-02-12T10:26:56Z</time>
      </trkpt>
      <trkpt lat="43.472310" lon="1.543647">
        <ele>223.3</ele>
        <time>2014-02-12T10:27:07Z</time>
      </trkpt>
      <trkpt lat="43.472304" lon="1.543777">
        <ele>222.2</ele>
        <time>2014-02-12T10:27:19Z</time>
      </trkpt>
      <trkpt lat="43.472292" lon="1.543902">
        <ele>220.9</ele>
        <time>2014-02-12T10:27:30Z</time>
      </trkpt>
      <trkpt lat="43.472301" lon="1.544038">
        <ele>219.7</ele>
        <time>2014-02-12T10:27:41Z</time>
      </trkpt>
      <trkpt lat="43.472301" lon="1.544173">
        <ele>218.4</ele>
        <time>2014-02-12T10:27:51Z</time>
      </trkpt>
      <trkpt lat="43.472298" lon="1.544326">
        <ele>216.9</ele>
        <time>2014-02-12T10:28:03Z</time>
      </trkpt>
      <trkpt lat="43.472275" lon="1.544474">
        <ele>215.3</ele>
        <time>2014-02-12T10:28:15Z</time>
      </trkpt>
      <trkpt lat="43.472270" lon="1.544637">
        <ele>214.2</ele>
        <time>2014-02-12T10:28:25Z</time>
      </trkpt>
      <trkpt lat="43.472249" lon="1.544780">
        <ele>213.1</ele>
        <time>2014-02-12T10:28:35Z</time>
      </trkpt>
      <trkpt lat="43.472236" lon="1.544917">
        <ele>211.6</ele>
        <time>2014-02-12T10:28:45Z</time>
      </trkpt>
      <trkpt lat="43.472231" lon="1.545079">
        <ele>210.3</ele>
        <time>2014-02-12T10:28:55Z</time>
      </trkpt>
      <trkpt lat="43.472228" lon="1.545219">
        <ele>208.6</ele>
        <time>2014-02-12T10:29:05Z</time>
      </trkpt>
      <trkpt lat="43.472231" lon="1.545353">
        <ele>207.4</ele>
        <time>2014-02-12T10:29:14Z</time>
      </trkpt>
      <trkpt lat="43.472226" lon="1.545476">
        <ele>206.2</ele>
        <time>2014-02-12T10:29:23Z</time>
      </trkpt>
      <trkpt lat="43.472220" lon="1.545609">
        <ele>205.0</ele>
        <time>2014-02-12T10:29:33Z</time>
      </trkpt>
      <trkpt lat="43.472196" lon="1.545739">
        <ele>203.8</ele>
        <time>2014-02-12T10:29:42Z</time>
      </trkpt>
      <trkpt lat="43.472185" lon="1.545872">
        <ele>202.4</ele>
        <time>2014-02-12T10:29:51Z</time>
      </trkpt>
      <trkpt lat="43.472188" lon="1.546016">
        <ele>201.1</ele>
        <time>2014-02-12T10:30:00Z</time>
      </trkpt>
      <trkpt lat="43.472175" lon="1.546149">
        <ele>200.3</ele>
        <time>2014-02-12T10:30:10Z</time>
      </trkpt>
      <trkpt lat="43.472165" lon="1.546287">
        <ele>199.2</ele>
        <time>2014-02-12T10:30:19Z</time>
      </trkpt>
      <trkpt lat="43.472159" lon="1.546433">
        <ele>197.7</ele>
        <time>2014-02-12T10:30:28Z</time>
      </trkpt>
      <trkpt lat="43.472138" lon="1.546566">
        <ele>196.7</ele>
        <time>2014-02-12T10:30:38Z</time>
      </trkpt>
      <trkpt lat="43.472114" lon="1.546695">
        <ele>195.6</ele>
        <time>2014-02-12T10:30:47Z</time>
      </trkpt>
      <trkpt lat="43.472102" lon="1.546845">
        <ele>194.5</ele>
        <time>2014-02-12T10:30:56Z</time>
      </trkpt>
      <trkpt lat="43.472084" lon="1.546987">
        <ele>193.4</ele>
        <time>2014-02-12T10:31:06Z</time>
      </trkpt>
      <trkpt lat="43.472060" lon="1.547121">
        <ele>192.5</ele>
        <time>2014-02-12T10:31:16Z</time>
      </trkpt>
      <trkpt lat="43.472048" lon="1.547262">
        <ele>191.7</ele>
        <time>2014-02-12T10:31:25Z</time>
      </trkpt>
      <trkpt lat="43.472019" lon="1.547412">
        <ele>191.0</ele>
        <time>2014-02-12T10:31:35Z</time>
      </trkpt>
      <trkpt lat="43.471973" lon="1.547545">
        <ele>189.9</ele>
        <time>2014-02-12T10:31:45Z</time>
      </trkpt>
      <trkpt lat="43.471923" lon="1.547687">
        <ele>188.8</ele>
        <time>2014-02-12T10:31:58Z</time>
      </trkpt>
      <trkpt lat="43.471874" lon="1.547829">
        <ele>187.4</ele>
        <time>2014-02-12T10:32:13Z</time>
      </trkpt>
      <trkpt lat="43.471803" lon="1.547965">
        <ele>185.7</ele>
        <time>2014-02-12T10:32:26Z</time>
      </trkpt>
      <trkpt lat="43.471748" lon="1.548100">
        <ele>184.3</ele>
        <time>2014-02-12T10:32:38Z</time>
      </trkpt>
      <trkpt lat="43.471694" lon="1.548237">
        <ele>182.8</ele>
        <time>2014-02-12T10:32:50Z</time>
      </trkpt>
      <trkpt lat="43.471635" lon="1.548344">
        <ele>181.7</ele>
        <time>2014-02-12T10:33:02Z</time>
      </trkpt>
      <trkpt lat="43.471560" lon="1.548458">
        <ele>179.7</ele>
        <time>2014-02-12T10:33:14Z</time>
      </trkpt>
      <trkpt lat="43.471520" lon="1.548612">
        <ele>178.0</ele>
        <time>2014-02-12T10:33:26Z</time>
      </trkpt>
      <trkpt lat="43.471597" lon="1.548853">
        <ele>174.6</ele>
        <time>2014-02-12T10:48:31Z</time>
      </trkpt>
      <trkpt lat="43.471693" lon="1.548984">
        <ele>173.6</ele>
        <time>2014-02-12T10:48:44Z</time>
      </trkpt>
      <trkpt lat="43.471795" lon="1.549031">
        <ele>172.9</ele>
        <time>2014-02-12T10:48:57Z</time>
      </trkpt>
    </trkseg>
  </trk>
</gpx>

